Time,TemperatureF,DewpointF,PressureIn,WindDirection,WindDirectionDegrees,WindSpeedMPH,WindSpeedGustMPH,Humidity,HourlyPrecipIn,Conditions,Clouds,dailyrainin,SoftwareType,DateUTC
2013-03-21 00:00:00,35.0,-99.9,-100.00,WSW,252,85.0,-999.0,-999,-99.99,,,0.01,,2013-03-21 06:00:00,
2013-03-21 01:00:00,34.0,-99.9,-100.00,North,-999,-999.0,-999.0,-999,-99.99,,,0.01,,2013-03-21 07:00:00,
2013-03-21 01:53:00,34.0,-99.9,-100.00,North,-999,-999.0,-999.0,-999,-99.99,,,0.01,,2013-03-21 07:53:00,
2013-03-21 02:00:00,34.0,-99.9,-100.00,West,269,91.0,-999.0,-999,-99.99,,,0.01,,2013-03-21 08:00:00,
2013-03-21 03:00:00,33.0,-99.9,-100.00,West,271,92.0,-999.0,-999,-99.99,,,0.01,,2013-03-21 09:00:00,
2013-03-21 04:00:00,34.0,-99.9,-100.00,West,265,92.0,-999.0,-999,-99.99,,,0.01,,2013-03-21 10:00:00,
2013-03-21 05:00:00,34.0,-99.9,-100.00,WSW,258,88.0,-999.0,-999,-99.99,,,0.01,,2013-03-21 11:00:00,
2013-03-21 06:00:00,34.0,-99.9,-100.00,WSW,254,86.0,-999.0,-999,-99.99,,,0.01,,2013-03-21 12:00:00,
2013-03-21 07:00:00,35.0,-99.9,-100.00,WSW,247,84.0,-999.0,-999,-99.99,,,0.01,,2013-03-21 13:00:00,
2013-03-21 08:00:00,35.0,-99.9,-100.00,WSW,253,86.0,-999.0,-999,-99.99,,,0.00,,2013-03-21 14:00:00,
2013-03-21 09:00:00,36.0,-99.9,-100.00,WSW,247,85.0,-999.0,-999,-99.99,,,0.00,,2013-03-21 15:00:00,
2013-03-21 10:00:00,38.0,-99.9,-100.00,WSW,241,83.0,-999.0,-999,-99.99,,,0.00,,2013-03-21 16:00:00,
2013-03-21 11:00:00,32.0,-99.9,-100.00,West,265,112.0,-999.0,-999,-99.99,,,0.00,,2013-03-21 17:00:00,
2013-03-21 12:00:00,32.0,-99.9,-100.00,NNW,335,113.0,-999.0,-999,-99.99,,,0.00,,2013-03-21 18:00:00,
2013-03-21 13:00:00,36.0,-99.9,-100.00,NNW,335,114.0,-999.0,-999,-99.99,,,0.00,,2013-03-21 19:00:00,
2013-03-21 14:00:00,35.0,-99.9,-100.00,NW,308,109.0,-999.0,-999,-99.99,,,0.01,,2013-03-21 20:00:00,
2013-03-21 14:54:00,35.0,-99.9,-100.00,North,-999,-999.0,-999.0,-999,-99.99,,,0.01,,2013-03-21 20:54:00,
2013-03-21 15:00:00,34.0,-99.9,-100.00,WSW,249,101.0,-999.0,-999,-99.99,,,0.01,,2013-03-21 21:00:00,
2013-03-21 15:43:00,34.0,-99.9,-100.00,WSW,249,101.0,-999.0,-999,-99.99,,,0.01,,2013-03-21 21:43:00,
2013-03-21 15:53:00,34.0,-99.9,-100.00,WSW,249,101.0,-999.0,-999,-99.99,,,0.01,,2013-03-21 21:53:00,
2013-03-21 16:00:00,32.0,-99.9,-100.00,SSW,213,74.0,-999.0,-999,-99.99,,,0.00,,2013-03-21 22:00:00,
2013-03-21 16:53:00,32.0,-99.9,-100.00,SSW,213,74.0,-999.0,-999,-99.99,,,0.00,,2013-03-21 22:53:00,
2013-03-21 17:00:00,31.0,-99.9,-100.00,South,177,72.0,-999.0,-999,-99.99,,,0.00,,2013-03-21 23:00:00,
2013-03-21 17:43:00,31.0,-99.9,-100.00,South,177,72.0,-999.0,-999,-99.99,,,0.00,,2013-03-21 23:43:00,
2013-03-21 17:53:00,31.0,-99.9,-100.00,South,177,72.0,-999.0,-999,-99.99,,,0.00,,2013-03-21 23:53:00,
2013-03-21 18:00:00,29.0,-99.9,-100.00,North,-999,-999.0,-999.0,-999,-99.99,,,0.01,,2013-03-22 00:00:00,
2013-03-21 19:00:00,27.0,-99.9,-100.00,SSW,192,68.0,-999.0,-999,-99.99,,,0.01,,2013-03-22 01:00:00,
2013-03-21 19:53:00,27.0,-99.9,-100.00,SSW,192,68.0,-999.0,-999,-99.99,,,0.01,,2013-03-22 01:53:00,
2013-03-21 20:00:00,25.0,-99.9,-100.00,SW,222,82.0,-999.0,-999,-99.99,,,0.00,,2013-03-22 02:00:00,
2013-03-21 21:00:00,24.0,-99.9,-100.00,WSW,255,88.0,-999.0,-999,-99.99,,,0.00,,2013-03-22 03:00:00,
2013-03-21 21:43:00,24.0,-99.9,-100.00,WSW,255,88.0,-999.0,-999,-99.99,,,0.00,,2013-03-22 03:43:00,
2013-03-21 21:53:00,24.0,-99.9,-100.00,WSW,255,88.0,-999.0,-999,-99.99,,,0.00,,2013-03-22 03:53:00,
2013-03-21 22:00:00,22.0,-99.9,-100.00,WSW,250,86.0,-999.0,-999,-99.99,,,0.00,,2013-03-22 04:00:00,
2013-03-21 23:00:00,22.0,-99.9,-100.00,WSW,254,86.0,-999.0,-999,-99.99,,,0.00,,2013-03-22 05:00:00,